Time;durP1;ratioP1;P1;durP2;ratioP2;P2;SDS_P1;SDS_P2;PMS_P1;PMS_P2;Temp;Humidity;BMP_temperature;BMP_pressure;BME280_temperature;BME280_humidity;BME280_pressure;Samples;Min_cycle;Max_cycle;Signal;HPM_P1;HPM_P2
2021/05/10 00:00:44;;;;;;;7.30;1.33;;;21.90;53.80;;;;;;2088028;28;20338;-68
2021/05/10 00:01:44;;;;;;;2.67;1.00;;;21.90;53.90;;;;;;2088252;28;20025;-68
2021/05/10 00:02:45;;;;;;;2.42;1.20;;;21.80;53.60;;;;;;2087425;28;20089;-68
2021/05/10 00:03:46;;;;;;;2.05;0.88;;;21.80;53.50;;;;;;2086954;28;20540;-68
2021/05/10 00:04:47;;;;;;;1.85;0.95;;;21.90;53.90;;;;;;2087201;28;20021;-68
2021/05/10 00:05:49;;;;;;;4.13;1.20;;;21.80;54.00;;;;;;2087410;28;20033;-68
2021/05/10 00:06:50;;;;;;;3.05;1.00;;;21.80;53.70;;;;;;2086752;28;20067;-68
2021/05/10 00:07:50;;;;;;;1.08;0.63;;;21.80;53.60;;;;;;2088235;28;20051;-68
2021/05/10 00:08:51;;;;;;;1.27;0.93;;;21.80;53.60;;;;;;2087876;28;20380;-68
2021/05/10 00:09:52;;;;;;;2.83;1.17;;;21.80;53.70;;;;;;2087289;28;20029;-68
2021/05/10 00:10:53;;;;;;;4.85;1.15;;;21.80;53.70;;;;;;2087566;28;20032;-68
2021/05/10 00:11:54;;;;;;;3.75;1.00;;;21.80;53.50;;;;;;2088088;28;20021;-68
2021/05/10 00:12:54;;;;;;;0.90;0.90;;;21.80;53.80;;;;;;2087429;28;20096;-68
2021/05/10 00:13:55;;;;;;;2.65;1.00;;;21.80;53.80;;;;;;2087947;28;20392;-68
2021/05/10 00:14:57;;;;;;;5.03;0.98;;;21.80;54.10;;;;;;2087690;28;20025;-68
2021/05/10 00:15:57;;;;;;;3.95;1.05;;;21.80;54.30;;;;;;2088060;28;20116;-68
2021/05/10 00:16:58;;;;;;;3.17;1.27;;;21.80;54.70;;;;;;2087877;28;20116;-68
2021/05/10 00:18:02;;;;;;;5.32;1.00;;;21.80;54.60;;;;;;2088245;28;20053;-69
2021/05/10 00:19:03;;;;;;;4.68;0.90;;;21.80;54.80;;;;;;2088107;28;20055;-68
2021/05/10 00:20:04;;;;;;;0.82;0.80;;;21.80;54.80;;;;;;2087965;28;20067;-68
2021/05/10 00:21:05;;;;;;;1.85;0.90;;;21.70;54.60;;;;;;2087927;28;20087;-68
2021/05/10 00:22:06;;;;;;;2.45;1.00;;;21.70;54.60;;;;;;2084202;28;20030;-68
2021/05/10 00:23:07;;;;;;;1.42;1.00;;;21.70;54.80;;;;;;2087654;28;20060;-68
2021/05/10 00:24:08;;;;;;;2.92;0.90;;;21.70;55.00;;;;;;2090271;28;20024;-68
2021/05/10 00:25:09;;;;;;;2.28;1.05;;;21.70;55.00;;;;;;2093215;28;20028;-68
2021/05/10 00:26:09;;;;;;;2.17;0.63;;;21.70;55.20;;;;;;2095362;28;20024;-68
2021/05/10 00:27:10;;;;;;;1.58;1.05;;;21.70;55.50;;;;;;2087989;28;20500;-68
2021/05/10 00:28:12;;;;;;;2.53;0.90;;;21.70;55.70;;;;;;2087845;28;20025;-68
2021/05/10 00:29:17;;;;;;;1.60;1.13;;;21.70;55.50;;;;;;2087982;28;20381;-68
2021/05/10 00:30:19;;;;;;;2.47;0.90;;;21.70;55.70;;;;;;2087723;28;20147;-68
2021/05/10 00:31:20;;;;;;;3.90;1.23;;;21.70;55.70;;;;;;2088033;28;20036;-68
2021/05/10 00:32:20;;;;;;;2.10;0.93;;;21.70;55.70;;;;;;2087131;28;20067;-68
2021/05/10 00:33:21;;;;;;;2.70;0.77;;;21.70;55.60;;;;;;2087955;28;20127;-69
2021/05/10 00:34:21;;;;;;;5.47;1.40;;;21.70;55.90;;;;;;2087821;28;20021;-68
2021/05/10 00:35:23;;;;;;;2.33;1.13;;;21.60;55.80;;;;;;2087806;28;20052;-68
2021/05/10 00:36:24;;;;;;;4.05;1.27;;;21.70;56.20;;;;;;2087551;28;20060;-68
2021/05/10 00:37:24;;;;;;;4.28;1.00;;;21.60;56.20;;;;;;2087463;28;20029;-68
2021/05/10 00:38:25;;;;;;;3.75;0.90;;;21.60;55.30;;;;;;2086841;28;20052;-68
2021/05/10 00:39:26;;;;;;;2.60;1.00;;;21.60;55.60;;;;;;2087721;28;20484;-68
2021/05/10 00:40:30;;;;;;;2.08;1.00;;;21.60;55.20;;;;;;2087454;28;20039;-68
2021/05/10 00:41:31;;;;;;;1.15;0.80;;;21.60;55.20;;;;;;2087738;28;20020;-68
2021/05/10 00:42:32;;;;;;;2.38;1.00;;;21.60;55.60;;;;;;2087184;28;20033;-68
2021/05/10 00:43:32;;;;;;;3.40;1.00;;;21.60;55.90;;;;;;2087831;28;20114;-68
2021/05/10 00:44:33;;;;;;;5.72;1.08;;;21.60;55.90;;;;;;2087717;28;20473;-68
2021/05/10 00:45:34;;;;;;;7.00;1.30;;;21.60;56.10;;;;;;2087868;28;20083;-68
2021/05/10 00:46:36;;;;;;;1.08;0.95;;;21.60;56.20;;;;;;2087697;28;20083;-68
2021/05/10 00:47:37;;;;;;;4.80;1.00;;;21.60;56.40;;;;;;2087941;28;20104;-68
2021/05/10 00:48:38;;;;;;;1.52;0.90;;;21.60;56.30;;;;;;2087651;28;20536;-68
2021/05/10 00:49:38;;;;;;;2.55;1.23;;;21.60;56.20;;;;;;2087642;28;20385;-68
2021/05/10 00:50:39;;;;;;;1.35;0.70;;;21.60;56.40;;;;;;2087393;28;20056;-68
2021/05/10 00:51:39;;;;;;;2.25;0.98;;;21.60;57.00;;;;;;2087981;28;20021;-68
2021/05/10 00:52:40;;;;;;;2.50;1.38;;;21.60;56.60;;;;;;2086709;28;20102;-68
2021/05/10 00:53:41;;;;;;;4.10;0.98;;;21.60;56.40;;;;;;2087540;28;20036;-68
2021/05/10 00:54:41;;;;;;;1.55;0.95;;;21.60;56.60;;;;;;2087657;28;20052;-68
2021/05/10 00:55:42;;;;;;;2.55;1.10;;;21.60;56.20;;;;;;2087423;28;20044;-68
2021/05/10 00:56:43;;;;;;;5.40;1.80;;;21.60;56.60;;;;;;2087606;28;20052;-68
2021/05/10 00:57:50;;;;;;;1.55;1.30;;;21.60;56.90;;;;;;2087700;28;20029;-68
2021/05/10 00:58:50;;;;;;;1.35;1.00;;;21.60;57.50;;;;;;2087949;28;20048;-68
2021/05/10 00:59:52;;;;;;;3.20;0.90;;;21.60;57.80;;;;;;2087700;28;20025;-68
2021/05/10 01:00:52;;;;;;;4.78;1.20;;;21.60;58.00;;;;;;2083063;28;20040;-68
2021/05/10 01:01:53;;;;;;;2.60;1.25;;;21.50;57.60;;;;;;2095250;28;20025;-68
2021/05/10 01:02:54;;;;;;;1.42;1.10;;;21.60;57.20;;;;;;2094661;28;20056;-68
2021/05/10 01:03:55;;;;;;;2.13;1.20;;;21.50;57.20;;;;;;2087593;28;20051;-68
2021/05/10 01:04:55;;;;;;;3.90;1.10;;;21.50;56.90;;;;;;2087289;28;20017;-68
2021/05/10 01:05:56;;;;;;;1.23;0.80;;;21.50;57.60;;;;;;2087459;28;20025;-68
2021/05/10 01:06:57;;;;;;;2.45;1.20;;;21.50;58.10;;;;;;2087457;28;20028;-68
2021/05/10 01:07:58;;;;;;;1.58;0.90;;;21.50;58.30;;;;;;2087511;28;20528;-68
2021/05/10 01:08:58;;;;;;;2.85;1.00;;;21.50;59.10;;;;;;2087361;28;20056;-68
2021/05/10 01:10:05;;;;;;;5.50;1.25;;;21.50;59.10;;;;;;2087453;28;20476;-68
2021/05/10 01:11:06;;;;;;;2.25;0.95;;;21.50;59.10;;;;;;2087330;28;20032;-68
2021/05/10 01:12:07;;;;;;;7.57;1.38;;;21.50;59.60;;;;;;2087202;28;20102;-68
2021/05/10 01:13:07;;;;;;;0.98;0.88;;;21.50;59.20;;;;;;2086958;28;20055;-68
2021/05/10 01:14:08;;;;;;;2.20;1.10;;;21.50;60.30;;;;;;2087603;28;20074;-68
2021/05/10 01:15:11;;;;;;;1.33;0.98;;;21.50;60.00;;;;;;2087672;28;20376;-68
2021/05/10 01:16:12;;;;;;;2.08;0.80;;;21.40;59.10;;;;;;2087549;28;20469;-68
2021/05/10 01:17:13;;;;;;;3.40;1.10;;;21.40;59.30;;;;;;2087648;28;20377;-68
2021/05/10 01:18:14;;;;;;;1.95;1.20;;;21.40;59.20;;;;;;2087848;28;20028;-68
2021/05/10 01:19:17;;;;;;;1.77;1.20;;;21.40;59.40;;;;;;2087779;28;20029;-68
2021/05/10 01:20:19;;;;;;;2.13;0.98;;;21.40;58.90;;;;;;2087193;28;20451;-68
2021/05/10 01:21:20;;;;;;;3.63;1.02;;;21.40;58.40;;;;;;2087397;28;20456;-68
2021/05/10 01:22:22;;;;;;;2.03;0.82;;;21.40;58.60;;;;;;2087911;28;20032;-68
2021/05/10 01:23:23;;;;;;;3.45;0.80;;;21.40;58.30;;;;;;2087904;28;20433;-69
2021/05/10 01:24:25;;;;;;;4.25;1.25;;;21.40;57.90;;;;;;2092116;28;20135;-68
2021/05/10 01:25:30;;;;;;;1.27;1.02;;;21.40;57.80;;;;;;2082656;28;20033;-68
2021/05/10 01:26:30;;;;;;;5.38;1.15;;;21.40;57.80;;;;;;2087663;28;20472;-68
2021/05/10 01:27:31;;;;;;;2.00;0.93;;;21.40;57.60;;;;;;2086607;28;20581;-68
2021/05/10 01:28:31;;;;;;;3.80;1.30;;;21.40;57.30;;;;;;2086636;28;20456;-68
2021/05/10 01:29:32;;;;;;;2.00;0.90;;;21.40;57.50;;;;;;2087423;28;20048;-68
2021/05/10 01:30:39;;;;;;;1.65;0.88;;;21.40;57.30;;;;;;2087490;28;20021;-68
2021/05/10 01:31:39;;;;;;;1.27;0.93;;;21.40;57.20;;;;;;2087309;28;20129;-68
2021/05/10 01:32:40;;;;;;;1.25;1.00;;;21.40;57.20;;;;;;2086822;28;20028;-68
2021/05/10 01:33:40;;;;;;;3.85;0.98;;;21.40;57.30;;;;;;2087561;28;20025;-68
2021/05/10 01:34:41;;;;;;;2.42;1.10;;;21.50;57.20;;;;;;2087250;28;20052;-68
2021/05/10 01:35:43;;;;;;;2.65;0.90;;;21.40;57.30;;;;;;2086678;28;20068;-68
2021/05/10 01:36:44;;;;;;;1.67;0.85;;;21.50;57.00;;;;;;2087228;28;20037;-68
2021/05/10 01:37:45;;;;;;;1.90;1.05;;;21.50;56.90;;;;;;2087501;28;20085;-68
2021/05/10 01:38:45;;;;;;;3.38;1.15;;;21.50;56.70;;;;;;2087702;28;20075;-68
2021/05/10 01:39:46;;;;;;;2.35;1.00;;;21.50;56.20;;;;;;2087175;28;20048;-68
2021/05/10 01:40:47;;;;;;;4.18;1.15;;;21.50;56.10;;;;;;2087529;28;20032;-68
2021/05/10 01:41:48;;;;;;;2.10;0.93;;;21.50;56.30;;;;;;2087487;28;20025;-68
2021/05/10 01:42:49;;;;;;;2.60;0.90;;;21.50;56.60;;;;;;2086947;28;20059;-68
2021/05/10 01:43:49;;;;;;;3.15;1.00;;;21.50;56.10;;;;;;2087469;28;20425;-68
2021/05/10 01:44:50;;;;;;;3.78;0.90;;;21.60;56.10;;;;;;2087448;28;20127;-68
2021/05/10 01:45:50;;;;;;;3.08;0.98;;;21.60;56.20;;;;;;2086799;28;20032;-68
2021/05/10 01:46:51;;;;;;;2.40;1.20;;;21.60;56.10;;;;;;2087465;28;20032;-68
2021/05/10 01:48:06;;;;;;;2.38;1.15;;;21.60;56.50;;;;;;2087423;28;20040;-68
2021/05/10 01:49:07;;;;;;;4.55;1.20;;;21.60;56.10;;;;;;2087531;28;20017;-68
2021/05/10 01:50:12;;;;;;;1.27;0.80;;;21.60;56.10;;;;;;2087339;28;20053;-68
2021/05/10 01:51:13;;;;;;;4.60;1.00;;;21.70;56.20;;;;;;2087393;28;20059;-68
2021/05/10 01:52:14;;;;;;;3.38;1.00;;;21.60;56.10;;;;;;2086981;28;20078;-68
2021/05/10 01:53:16;;;;;;;3.40;0.90;;;21.70;56.40;;;;;;2087443;28;20150;-68
2021/05/10 01:54:19;;;;;;;3.13;0.80;;;21.60;56.50;;;;;;2087007;28;20029;-68
2021/05/10 01:55:23;;;;;;;4.45;1.50;;;21.60;56.70;;;;;;2087464;28;20016;-68
2021/05/10 01:56:24;;;;;;;2.58;0.93;;;21.70;56.50;;;;;;2087256;28;20041;-68
2021/05/10 01:57:24;;;;;;;0.98;0.93;;;21.70;56.40;;;;;;2087366;28;20119;-68
2021/05/10 01:58:25;;;;;;;2.45;0.95;;;21.70;56.10;;;;;;2087427;28;20419;-68
2021/05/10 01:59:26;;;;;;;1.40;0.93;;;21.70;55.80;;;;;;2087287;28;20029;-68
2021/05/10 02:00:32;;;;;;;2.05;0.90;;;21.70;56.30;;;;;;2087311;28;20096;-68
2021/05/10 02:01:33;;;;;;;1.45;1.00;;;21.70;55.70;;;;;;2089007;28;20056;-68
2021/05/10 02:02:34;;;;;;;2.17;0.82;;;21.70;56.00;;;;;;2088150;28;20057;-68
2021/05/10 02:03:34;;;;;;;1.20;0.90;;;21.70;55.90;;;;;;2088731;28;20032;-68
2021/05/10 02:05:09;;;;;;;3.50;1.00;;;21.70;56.50;;;;;;2088604;28;20051;-68
2021/05/10 02:06:10;;;;;;;3.75;1.15;;;21.70;55.80;;;;;;2088483;28;20024;-68
2021/05/10 02:07:10;;;;;;;2.47;1.27;;;21.70;55.30;;;;;;2088678;28;20025;-68
2021/05/10 02:08:13;;;;;;;1.27;0.93;;;21.70;54.80;;;;;;2088769;28;20035;-68
2021/05/10 02:09:13;;;;;;;4.70;1.25;;;21.80;54.70;;;;;;2088465;28;20408;-68
2021/05/10 02:10:22;;;;;;;2.72;1.15;;;21.80;54.50;;;;;;2088617;28;20025;-68
2021/05/10 02:11:23;;;;;;;3.13;1.00;;;21.80;54.40;;;;;;2088318;28;20025;-68
2021/05/10 02:12:23;;;;;;;2.95;0.77;;;21.80;54.20;;;;;;2088205;28;20060;-68
2021/05/10 02:13:25;;;;;;;1.52;1.00;;;21.80;54.00;;;;;;2088560;28;20029;-68
2021/05/10 02:14:26;;;;;;;1.70;0.70;;;21.90;53.80;;;;;;2088793;28;20025;-68
2021/05/10 02:15:37;;;;;;;2.33;1.05;;;21.90;53.80;;;;;;2088512;28;20104;-68
2021/05/10 02:16:38;;;;;;;3.45;1.27;;;21.90;53.50;;;;;;2088851;28;20499;-68
2021/05/10 02:17:38;;;;;;;2.13;1.02;;;21.90;53.30;;;;;;2088654;28;20447;-68
2021/05/10 02:18:39;;;;;;;1.67;1.10;;;21.90;53.00;;;;;;2088432;28;20052;-68
2021/05/10 02:19:39;;;;;;;3.28;1.10;;;22.00;53.00;;;;;;2088544;28;20148;-68
2021/05/10 02:20:41;;;;;;;3.80;1.05;;;22.00;53.00;;;;;;2088595;28;20380;-68
2021/05/10 02:21:41;;;;;;;2.17;0.73;;;22.00;52.80;;;;;;2088563;28;20070;-68
2021/05/10 02:22:49;;;;;;;1.60;1.00;;;22.00;52.80;;;;;;2088399;28;20592;-68
2021/05/10 02:23:50;;;;;;;2.80;0.85;;;22.00;52.80;;;;;;2088744;28;20429;-68
2021/05/10 02:24:50;;;;;;;3.28;0.90;;;22.00;52.70;;;;;;2088593;28;20056;-69
2021/05/10 02:25:54;;;;;;;1.25;0.70;;;22.10;52.80;;;;;;2088392;28;20037;-69
2021/05/10 02:26:54;;;;;;;1.08;0.73;;;22.10;52.80;;;;;;2088531;28;20028;-68
2021/05/10 02:27:56;;;;;;;3.63;0.95;;;22.10;52.80;;;;;;2087467;28;20057;-68
2021/05/10 02:29:01;;;;;;;3.03;0.70;;;22.10;52.70;;;;;;2088220;28;20021;-68
2021/05/10 02:30:02;;;;;;;2.28;0.82;;;22.10;52.50;;;;;;2088369;28;20048;-68
2021/05/10 02:31:03;;;;;;;0.95;0.90;;;22.10;52.50;;;;;;2088685;28;20013;-68
2021/05/10 02:32:04;;;;;;;1.63;0.98;;;22.10;52.30;;;;;;2088547;28;20045;-68
2021/05/10 02:33:12;;;;;;;1.00;0.77;;;22.20;52.30;;;;;;2088351;28;20119;-68
2021/05/10 02:34:13;;;;;;;2.72;0.93;;;22.20;52.40;;;;;;2090043;28;20017;-68
2021/05/10 02:35:14;;;;;;;2.15;1.02;;;22.20;52.30;;;;;;2090060;28;20025;-68
2021/05/10 02:36:15;;;;;;;4.88;0.80;;;22.20;52.50;;;;;;2089793;28;20521;-68
2021/05/10 02:37:17;;;;;;;1.35;1.08;;;22.20;52.50;;;;;;2090366;28;20381;-68
2021/05/10 02:38:19;;;;;;;2.20;0.90;;;22.20;52.50;;;;;;2089676;28;20029;-68
2021/05/10 02:39:21;;;;;;;1.50;0.90;;;22.20;52.40;;;;;;2090383;28;20037;-68
2021/05/10 02:40:22;;;;;;;1.42;0.90;;;22.20;52.00;;;;;;2090039;28;20029;-68
2021/05/10 02:41:22;;;;;;;3.15;0.77;;;22.20;52.30;;;;;;2090550;28;20032;-68
2021/05/10 02:42:23;;;;;;;3.58;0.88;;;22.30;52.40;;;;;;2088978;28;20120;-68
2021/05/10 02:43:25;;;;;;;1.52;0.77;;;22.30;52.40;;;;;;2095197;28;20037;-68
2021/05/10 02:44:26;;;;;;;1.92;0.95;;;22.30;52.40;;;;;;2090835;28;20057;-68
2021/05/10 02:45:26;;;;;;;1.23;0.90;;;22.30;52.60;;;;;;2092423;28;20028;-68
2021/05/10 02:46:27;;;;;;;1.02;0.80;;;22.30;52.50;;;;;;2096343;28;20036;-68
2021/05/10 02:47:28;;;;;;;2.88;0.80;;;22.20;52.50;;;;;;2092877;28;20024;-68
2021/05/10 02:48:28;;;;;;;1.60;1.00;;;22.30;52.50;;;;;;2089848;28;20480;-68
2021/05/10 02:49:29;;;;;;;1.05;0.95;;;22.30;52.50;;;;;;2089924;28;20388;-68
2021/05/10 02:50:29;;;;;;;2.35;0.82;;;22.30;52.30;;;;;;2089272;28;20118;-68
2021/05/10 02:51:30;;;;;;;0.80;0.80;;;22.30;52.40;;;;;;2081907;28;20060;-68
2021/05/10 02:52:31;;;;;;;4.28;1.02;;;22.30;52.40;;;;;;2084919;28;20105;-68
2021/05/10 02:53:31;;;;;;;4.65;1.02;;;22.30;52.30;;;;;;2090119;28;20083;-68
2021/05/10 02:54:32;;;;;;;2.10;1.10;;;22.30;52.10;;;;;;2088599;28;20027;-68
2021/05/10 02:55:32;;;;;;;2.20;0.90;;;22.20;51.80;;;;;;2090597;28;20060;-68
2021/05/10 02:56:33;;;;;;;3.65;0.90;;;22.30;51.70;;;;;;2096381;28;20071;-68
2021/05/10 02:57:35;;;;;;;2.42;0.75;;;22.30;51.60;;;;;;2090975;28;20404;-68
2021/05/10 02:58:35;;;;;;;3.28;1.08;;;22.30;51.60;;;;;;2093812;28;20554;-68
2021/05/10 02:59:36;;;;;;;2.55;0.80;;;22.30;51.80;;;;;;2081769;28;20381;-68
2021/05/10 03:00:36;;;;;;;3.92;1.08;;;22.40;51.70;;;;;;2085459;28;20033;-68
2021/05/10 03:01:37;;;;;;;4.43;1.00;;;22.40;52.00;;;;;;2089373;28;20029;-69
2021/05/10 03:02:37;;;;;;;2.70;0.82;;;22.30;51.80;;;;;;2088460;28;20504;-69
2021/05/10 03:03:38;;;;;;;2.42;1.00;;;22.40;52.00;;;;;;2089100;28;20021;-69
2021/05/10 03:04:39;;;;;;;1.35;0.70;;;22.40;52.00;;;;;;2088931;28;20029;-68
2021/05/10 03:05:40;;;;;;;1.30;0.90;;;22.30;51.90;;;;;;2088843;28;20067;-68
2021/05/10 03:06:41;;;;;;;3.15;0.93;;;22.40;51.70;;;;;;2088132;28;20032;-68
2021/05/10 03:07:41;;;;;;;2.25;1.05;;;22.40;51.90;;;;;;2088385;28;20053;-68
2021/05/10 03:08:42;;;;;;;1.92;1.00;;;22.40;51.80;;;;;;2084342;28;20029;-68
2021/05/10 03:09:43;;;;;;;3.22;0.80;;;22.30;51.70;;;;;;2089102;28;20028;-68
2021/05/10 03:10:43;;;;;;;1.90;0.90;;;22.30;51.60;;;;;;2088965;28;20052;-68
2021/05/10 03:11:44;;;;;;;1.50;0.63;;;22.40;51.60;;;;;;2087523;28;20427;-68
2021/05/10 03:12:45;;;;;;;2.42;0.90;;;22.30;51.80;;;;;;2088228;28;20048;-68
2021/05/10 03:13:46;;;;;;;2.28;1.15;;;22.40;51.70;;;;;;2088377;28;20028;-68
2021/05/10 03:14:47;;;;;;;1.00;0.88;;;22.40;51.70;;;;;;2088644;28;20032;-68
2021/05/10 03:15:47;;;;;;;3.83;0.90;;;22.30;51.80;;;;;;2088607;28;20566;-68
2021/05/10 03:16:48;;;;;;;1.88;0.80;;;22.30;51.90;;;;;;2088441;28;20104;-68
2021/05/10 03:17:52;;;;;;;1.15;0.93;;;22.30;51.90;;;;;;2088621;28;20555;-68
2021/05/10 03:18:53;;;;;;;2.60;1.10;;;22.30;52.00;;;;;;2088350;28;20032;-68
2021/05/10 03:19:56;;;;;;;2.47;0.70;;;22.30;52.00;;;;;;2088660;28;20120;-68
2021/05/10 03:20:57;;;;;;;2.55;0.90;;;22.30;52.20;;;;;;2088439;28;20049;-68
2021/05/10 03:21:57;;;;;;;1.17;0.98;;;22.30;52.10;;;;;;2088590;28;20021;-68
2021/05/10 03:22:58;;;;;;;2.58;1.17;;;22.30;52.00;;;;;;2088078;28;20378;-68
2021/05/10 03:23:58;;;;;;;3.88;1.05;;;22.30;52.20;;;;;;2088207;28;20028;-69
2021/05/10 03:24:59;;;;;;;1.38;1.00;;;22.30;52.40;;;;;;2087756;28;20027;-68
2021/05/10 03:26:00;;;;;;;2.75;1.10;;;22.20;52.50;;;;;;2088295;28;20037;-68
2021/05/10 03:27:00;;;;;;;8.02;1.38;;;22.20;52.40;;;;;;2089829;28;20040;-68
2021/05/10 03:28:01;;;;;;;2.25;1.05;;;22.20;52.20;;;;;;2088341;28;20025;-68
2021/05/10 03:29:03;;;;;;;1.85;0.80;;;22.20;52.50;;;;;;2088563;28;20379;-68
2021/05/10 03:30:04;;;;;;;2.55;0.90;;;22.20;52.60;;;;;;2088706;28;20070;-69
2021/05/10 03:31:05;;;;;;;1.35;0.75;;;22.20;52.70;;;;;;2088388;28;20406;-68
2021/05/10 03:32:06;;;;;;;0.70;0.70;;;22.20;52.90;;;;;;2088278;28;20075;-68
2021/05/10 03:33:07;;;;;;;2.00;0.93;;;22.10;52.20;;;;;;2087695;28;20021;-68
2021/05/10 03:34:08;;;;;;;5.60;0.90;;;22.20;52.40;;;;;;2088111;28;20043;-68
2021/05/10 03:35:10;;;;;;;3.00;1.15;;;22.20;52.80;;;;;;2088341;28;20044;-68
2021/05/10 03:36:11;;;;;;;2.00;0.85;;;22.10;52.60;;;;;;2088013;28;20044;-68
2021/05/10 03:37:11;;;;;;;2.85;1.05;;;22.10;52.60;;;;;;2091616;28;20031;-68
2021/05/10 03:38:12;;;;;;;2.47;0.75;;;22.10;52.70;;;;;;2093829;28;20024;-68
2021/05/10 03:39:12;;;;;;;2.42;1.13;;;22.10;52.50;;;;;;2093111;28;20452;-68
2021/05/10 03:40:15;;;;;;;2.53;0.98;;;22.10;52.80;;;;;;2088451;28;20024;-68
2021/05/10 03:41:15;;;;;;;10.73;0.95;;;22.10;52.80;;;;;;2088377;28;20033;-68
2021/05/10 03:42:16;;;;;;;1.95;0.75;;;22.10;52.70;;;;;;2087678;28;20081;-68
2021/05/10 03:43:17;;;;;;;2.33;1.05;;;22.10;52.70;;;;;;2088327;28;20025;-68
2021/05/10 03:44:17;;;;;;;0.98;0.77;;;22.10;52.70;;;;;;2088262;28;20039;-68
2021/05/10 03:45:18;;;;;;;1.42;0.73;;;22.10;52.50;;;;;;2088152;28;20473;-68
2021/05/10 03:46:19;;;;;;;2.67;0.75;;;22.10;52.30;;;;;;2088524;28;20029;-68
2021/05/10 03:47:20;;;;;;;2.00;1.05;;;22.10;52.20;;;;;;2084718;28;20028;-68
2021/05/10 03:48:21;;;;;;;1.75;0.88;;;22.00;52.30;;;;;;2088339;28;20036;-68
2021/05/10 03:49:21;;;;;;;3.53;0.90;;;22.10;52.60;;;;;;2088272;28;20120;-68
2021/05/10 03:50:22;;;;;;;1.40;1.00;;;22.00;52.30;;;;;;2088450;28;20396;-68
2021/05/10 03:51:23;;;;;;;1.85;1.02;;;22.00;52.30;;;;;;2080130;28;20052;-68
2021/05/10 03:52:23;;;;;;;0.90;0.85;;;22.00;52.60;;;;;;2082538;28;20033;-68
2021/05/10 03:53:24;;;;;;;5.22;1.35;;;22.00;52.50;;;;;;2088660;28;20078;-68
2021/05/10 03:54:24;;;;;;;3.45;1.00;;;22.00;52.40;;;;;;2088564;28;20047;-68
2021/05/10 03:55:26;;;;;;;2.03;0.80;;;22.00;52.30;;;;;;2089130;28;20091;-68
2021/05/10 03:56:26;;;;;;;2.17;0.90;;;22.00;52.50;;;;;;2090391;28;20060;-68
2021/05/10 03:57:27;;;;;;;1.35;1.00;;;22.00;52.50;;;;;;2089991;28;20033;-68
2021/05/10 03:58:27;;;;;;;1.77;1.10;;;22.00;52.60;;;;;;2090354;28;20029;-68
2021/05/10 03:59:28;;;;;;;1.13;0.85;;;22.00;52.60;;;;;;2093514;28;20074;-68
2021/05/10 04:00:28;;;;;;;1.75;0.82;;;22.00;52.60;;;;;;2092787;28;20033;-68
2021/05/10 04:01:29;;;;;;;1.92;0.60;;;22.00;52.50;;;;;;2095848;28;20555;-68
2021/05/10 04:02:30;;;;;;;2.17;0.93;;;21.90;52.60;;;;;;2091744;28;20025;-68
2021/05/10 04:03:36;;;;;;;1.15;0.90;;;21.90;52.70;;;;;;2090027;28;20338;-68
2021/05/10 04:04:40;;;;;;;1.88;0.70;;;21.90;52.70;;;;;;2090140;28;20472;-68
2021/05/10 04:14:37;;;;;;;2.03;1.10;;;21.80;53.30;;;;;;2090146;28;20112;-68
2021/05/10 04:15:38;;;;;;;1.95;0.80;;;21.70;53.30;;;;;;2090162;28;20021;-68
2021/05/10 04:16:38;;;;;;;2.17;0.90;;;21.80;53.30;;;;;;2089781;28;20436;-68
2021/05/10 04:17:39;;;;;;;1.65;1.02;;;21.80;53.30;;;;;;2089814;28;20037;-68
2021/05/10 04:18:39;;;;;;;1.90;0.93;;;21.80;53.30;;;;;;2089237;28;20053;-68
2021/05/10 04:19:40;;;;;;;2.80;1.20;;;21.80;53.40;;;;;;2089343;28;20366;-67
2021/05/10 04:20:41;;;;;;;1.27;0.73;;;21.80;53.10;;;;;;2089802;28;20021;-68
2021/05/10 04:21:43;;;;;;;4.35;0.70;;;21.80;53.00;;;;;;2089359;28;20021;-68
2021/05/10 04:22:43;;;;;;;2.40;1.15;;;21.80;53.10;;;;;;2088808;28;20025;-68
2021/05/10 04:23:44;;;;;;;5.28;1.10;;;21.80;52.90;;;;;;2089180;28;20115;-68
2021/05/10 04:24:44;;;;;;;1.00;0.80;;;21.80;52.80;;;;;;2089820;28;20029;-68
2021/05/10 04:25:53;;;;;;;2.03;0.98;;;21.80;52.70;;;;;;2089849;28;20064;-68
2021/05/10 04:26:54;;;;;;;1.58;1.08;;;21.80;52.60;;;;;;2089832;28;20025;-68
2021/05/10 04:27:54;;;;;;;2.40;1.02;;;21.80;52.80;;;;;;2089822;28;20033;-68
2021/05/10 04:28:55;;;;;;;1.67;0.80;;;21.90;52.70;;;;;;2089730;28;20036;-68
2021/05/10 04:29:55;;;;;;;1.52;0.65;;;21.90;52.70;;;;;;2089917;28;20029;-68
2021/05/10 04:30:56;;;;;;;2.13;1.10;;;21.90;52.70;;;;;;2089588;28;20024;-68
2021/05/10 04:31:57;;;;;;;1.55;0.90;;;21.90;52.90;;;;;;2089836;28;20083;-68
2021/05/10 04:32:59;;;;;;;1.02;0.85;;;21.90;53.00;;;;;;2089556;28;20083;-68
2021/05/10 04:33:59;;;;;;;8.77;1.27;;;21.90;52.90;;;;;;2090034;28;20056;-68
2021/05/10 04:35:00;;;;;;;0.95;0.80;;;21.90;52.80;;;;;;2089873;28;20029;-68
2021/05/10 04:36:01;;;;;;;1.45;1.00;;;21.90;52.90;;;;;;2090036;28;20033;-68
2021/05/10 04:37:02;;;;;;;1.83;0.90;;;21.90;52.70;;;;;;2089866;28;20036;-68
2021/05/10 04:38:09;;;;;;;3.30;1.20;;;22.00;53.00;;;;;;2089822;28;20021;-68
2021/05/10 04:39:10;;;;;;;2.05;0.88;;;22.00;53.10;;;;;;2089905;28;20029;-68
2021/05/10 04:40:11;;;;;;;1.45;1.00;;;22.00;52.90;;;;;;2089328;28;20774;-68
2021/05/10 04:41:12;;;;;;;3.30;1.17;;;22.00;52.90;;;;;;2089484;28;20057;-68
2021/05/10 04:42:12;;;;;;;2.75;0.82;;;22.00;53.00;;;;;;2088738;28;20076;-68
2021/05/10 04:43:13;;;;;;;1.23;0.80;;;22.00;52.90;;;;;;2082618;28;20044;-68
2021/05/10 04:44:13;;;;;;;2.80;1.00;;;22.00;53.10;;;;;;2084302;28;20026;-68
2021/05/10 04:45:15;;;;;;;3.15;1.10;;;22.00;53.20;;;;;;2081885;28;20063;-68
2021/05/10 04:46:15;;;;;;;2.78;1.10;;;22.10;53.30;;;;;;2083848;28;20131;-68
2021/05/10 04:47:16;;;;;;;1.13;0.90;;;22.10;53.30;;;;;;2082147;28;20535;-68
2021/05/10 04:48:17;;;;;;;3.10;1.08;;;22.10;53.30;;;;;;2083926;28;20528;-68
2021/05/10 04:49:17;;;;;;;1.42;0.95;;;22.10;53.40;;;;;;2081906;28;20028;-68
2021/05/10 04:50:18;;;;;;;1.73;0.68;;;22.10;53.60;;;;;;2081964;28;20013;-68
2021/05/10 04:51:19;;;;;;;1.80;0.90;;;22.10;53.50;;;;;;2082638;28;20017;-68
2021/05/10 04:52:19;;;;;;;2.42;1.10;;;22.10;53.50;;;;;;2082722;28;20044;-68
2021/05/10 04:53:20;;;;;;;1.55;1.20;;;22.20;53.70;;;;;;2081921;28;20033;-68
2021/05/10 04:54:21;;;;;;;2.15;1.10;;;22.20;53.90;;;;;;2084199;28;20040;-68
2021/05/10 04:55:21;;;;;;;1.90;1.15;;;22.20;53.90;;;;;;2084917;28;20473;-68
2021/05/10 04:56:22;;;;;;;2.50;0.88;;;22.20;54.30;;;;;;2086140;28;20104;-68
2021/05/10 04:57:22;;;;;;;2.13;1.08;;;22.20;54.80;;;;;;2085305;28;20775;-68
2021/05/10 04:58:23;;;;;;;9.13;1.05;;;22.20;55.10;;;;;;2082955;28;20071;-68
2021/05/10 04:59:23;;;;;;;1.80;0.85;;;22.20;55.50;;;;;;2085611;28;20033;-67
2021/05/10 05:00:24;;;;;;;1.42;0.88;;;22.20;55.80;;;;;;2082547;28;20033;-68
2021/05/10 05:01:24;;;;;;;1.42;0.90;;;22.20;55.80;;;;;;2082604;28;20025;-67
2021/05/10 05:02:25;;;;;;;3.42;1.00;;;22.10;56.10;;;;;;2081921;28;20026;-68
2021/05/10 05:03:26;;;;;;;3.05;1.17;;;22.10;56.30;;;;;;2081011;28;20029;-68
2021/05/10 05:04:26;;;;;;;2.40;1.17;;;22.10;56.10;;;;;;2083124;28;20079;-68
2021/05/10 05:05:27;;;;;;;2.08;1.05;;;22.10;56.40;;;;;;2083072;28;20033;-68
2021/05/10 05:06:28;;;;;;;3.38;1.25;;;22.10;56.60;;;;;;2081732;28;20440;-68
2021/05/10 05:07:29;;;;;;;4.10;1.00;;;22.10;56.50;;;;;;2082721;28;20159;-68
2021/05/10 05:08:29;;;;;;;2.47;1.15;;;22.10;56.60;;;;;;2082854;28;20087;-68
2021/05/10 05:09:30;;;;;;;1.98;1.13;;;22.10;56.90;;;;;;2087579;28;20106;-67
2021/05/10 05:10:30;;;;;;;2.92;1.40;;;22.10;56.80;;;;;;2089287;28;20431;-68
2021/05/10 05:11:31;;;;;;;4.30;1.33;;;22.10;57.10;;;;;;2090094;28;20029;-68
2021/05/10 05:12:31;;;;;;;5.22;0.90;;;22.10;57.00;;;;;;2089764;28;21413;-68
2021/05/10 05:13:32;;;;;;;3.13;0.90;;;22.10;56.90;;;;;;2089813;28;20025;-68
2021/05/10 05:14:33;;;;;;;1.13;0.73;;;22.10;57.00;;;;;;2089259;28;20111;-68
2021/05/10 05:15:33;;;;;;;3.40;0.88;;;22.10;56.70;;;;;;2089466;28;20045;-68
2021/05/10 05:16:34;;;;;;;3.15;1.02;;;22.10;56.70;;;;;;2089249;28;20036;-67
2021/05/10 05:17:35;;;;;;;2.35;0.90;;;22.10;56.70;;;;;;2083143;28;20428;-67
2021/05/10 05:18:37;;;;;;;4.57;1.13;;;22.10;56.80;;;;;;2087586;28;20037;-68
2021/05/10 05:19:37;;;;;;;2.88;1.27;;;22.10;56.80;;;;;;2089489;28;20364;-67
2021/05/10 05:20:38;;;;;;;3.92;0.90;;;22.10;56.80;;;;;;2089194;28;20024;-68
2021/05/10 05:21:38;;;;;;;2.10;1.00;;;22.10;56.90;;;;;;2089464;28;20082;-67
2021/05/10 05:22:39;;;;;;;2.17;1.13;;;22.10;56.80;;;;;;2088269;28;20025;-68
2021/05/10 05:23:40;;;;;;;1.65;0.90;;;22.10;56.60;;;;;;2086808;28;20466;-68
2021/05/10 05:24:40;;;;;;;1.20;0.90;;;22.10;57.00;;;;;;2087873;28;20104;-67
2021/05/10 05:25:41;;;;;;;1.58;0.88;;;22.10;56.90;;;;;;2088631;28;20028;-68
2021/05/10 05:26:41;;;;;;;3.22;1.02;;;22.10;56.90;;;;;;2089777;28;20671;-68
2021/05/10 05:27:42;;;;;;;7.72;1.00;;;22.10;57.10;;;;;;2088524;28;20699;-68
2021/05/10 05:28:42;;;;;;;5.28;1.00;;;22.10;56.90;;;;;;2089044;28;20032;-68